Time;durP1;ratioP1;P1;durP2;ratioP2;P2;SDS_P1;SDS_P2;PMS_P1;PMS_P2;Temp;Humidity;BMP_temperature;BMP_pressure;BME280_temperature;BME280_humidity;BME280_pressure;Samples;Min_cycle;Max_cycle;Signal;HPM_P1;HPM_P2
2021/01/26 00:00:58;;;;;;;26.30;19.07;;;;;;;4.42;100.00;98064.27;1815684;79;21602;-68
2021/01/26 00:03:27;;;;;;;28.75;20.75;;;;;;;4.39;100.00;98051.14;1815693;79;21578;-69
2021/01/26 00:05:55;;;;;;;23.00;16.05;;;;;;;4.38;100.00;98064.95;1815709;78;21494;-66
2021/01/26 00:08:24;;;;;;;24.40;16.87;;;;;;;4.35;100.00;98038.08;1815792;79;22099;-67
2021/01/26 00:10:53;;;;;;;23.25;16.15;;;;;;;4.33;100.00;98045.08;1815577;79;20946;-69
2021/01/26 00:13:21;;;;;;;23.50;17.73;;;;;;;4.31;100.00;98025.85;1815687;78;21606;-67
2021/01/26 00:15:50;;;;;;;25.35;16.90;;;;;;;4.31;100.00;98026.31;1815655;79;21400;-68
2021/01/26 00:18:18;;;;;;;24.70;16.45;;;;;;;4.28;100.00;98024.75;1815711;79;21048;-69
2021/01/26 00:20:47;;;;;;;26.50;17.50;;;;;;;4.27;100.00;98023.56;1815700;79;22187;-70
2021/01/26 00:23:17;;;;;;;23.60;17.12;;;;;;;4.25;100.00;98023.66;1815593;79;20953;-70
2021/01/26 00:25:46;;;;;;;25.55;18.00;;;;;;;4.23;100.00;98020.80;1815674;79;21004;-71
2021/01/26 00:28:15;;;;;;;30.77;19.45;;;;;;;4.22;100.00;98021.27;1815703;79;21480;-71
2021/01/26 00:30:43;;;;;;;25.82;17.62;;;;;;;4.21;100.00;97993.03;1815738;79;20930;-64
2021/01/26 00:33:19;;;;;;;25.32;15.58;;;;;;;4.19;100.00;98000.02;1815662;79;22151;-70
2021/01/26 00:35:47;;;;;;;23.55;16.10;;;;;;;4.17;100.00;97990.28;1816224;79;21380;-63
2021/01/26 00:41:57;;;;;;;29.15;17.80;;;;;;;4.13;100.00;97983.20;1816182;79;20937;-67
2021/01/26 00:44:25;;;;;;;26.57;17.48;;;;;;;4.11;100.00;97975.20;1816235;79;21622;-67
2021/01/26 00:46:54;;;;;;;25.30;17.25;;;;;;;4.10;100.00;97973.55;1816250;79;22169;-70
2021/01/26 00:49:22;;;;;;;20.75;16.02;;;;;;;4.10;100.00;97961.96;1816185;79;21578;-68
2021/01/26 00:51:51;;;;;;;32.48;19.15;;;;;;;4.09;100.00;97956.45;1816234;79;21563;-64
2021/01/26 00:54:19;;;;;;;22.37;15.60;;;;;;;4.07;100.00;97966.84;1816230;79;21428;-68
2021/01/26 00:56:48;;;;;;;22.42;16.95;;;;;;;4.08;100.00;97956.91;1816232;79;21601;-67
2021/01/26 00:59:17;;;;;;;26.95;18.82;;;;;;;4.06;100.00;97951.48;1816245;79;22238;-68
2021/01/26 01:01:46;;;;;;;26.85;17.85;;;;;;;4.05;100.00;97945.51;1816237;79;21524;-67
2021/01/26 01:04:14;;;;;;;23.32;17.00;;;;;;;4.03;100.00;97949.47;1816219;79;21495;-66
2021/01/26 01:06:43;;;;;;;26.17;16.37;;;;;;;4.02;100.00;97935.39;1816200;79;21468;-66
2021/01/26 01:09:11;;;;;;;19.87;14.53;;;;;;;4.01;100.00;97937.61;1816198;79;21533;-68
2021/01/26 01:11:41;;;;;;;24.80;16.25;;;;;;;3.98;100.00;97919.34;1816020;79;39979;-68
2021/01/26 01:14:10;;;;;;;28.80;19.52;;;;;;;3.97;100.00;97923.30;1816186;79;21412;-70
2021/01/26 01:16:38;;;;;;;27.77;17.67;;;;;;;3.96;100.00;97920.36;1816198;79;21586;-67
2021/01/26 01:19:07;;;;;;;27.67;18.92;;;;;;;3.95;100.00;97930.30;1816166;79;20878;-68
2021/01/26 01:21:35;;;;;;;22.00;15.53;;;;;;;3.95;100.00;97911.81;1816174;79;21349;-70
2021/01/26 01:24:05;;;;;;;24.95;18.10;;;;;;;3.94;100.00;97915.30;1816226;79;22154;-69
2021/01/26 01:26:34;;;;;;;26.73;17.48;;;;;;;3.93;100.00;97905.93;1816276;79;21360;-70
2021/01/26 01:29:03;;;;;;;23.12;15.43;;;;;;;3.92;100.00;97904.28;1816188;79;21524;-69
2021/01/26 01:31:31;;;;;;;21.75;16.20;;;;;;;3.92;100.00;97903.45;1816163;79;21554;-68
2021/01/26 01:33:59;;;;;;;21.93;14.65;;;;;;;3.91;100.00;97906.48;1816230;79;21539;-68
2021/01/26 01:36:28;;;;;;;24.00;16.50;;;;;;;3.87;100.00;97889.58;1815547;79;22155;-69
2021/01/26 01:38:56;;;;;;;23.85;18.02;;;;;;;3.86;100.00;97883.23;1815560;79;21583;-70
2021/01/26 01:41:31;;;;;;;28.23;18.02;;;;;;;3.85;100.00;97885.45;1815589;79;20950;-69
2021/01/26 01:44:00;;;;;;;23.00;17.07;;;;;;;3.84;100.00;97876.07;1815718;78;21025;-70
2021/01/26 01:46:30;;;;;;;25.82;16.65;;;;;;;3.81;100.00;97886.09;1815662;79;21474;-69
2021/01/26 01:49:01;;;;;;;21.75;16.25;;;;;;;3.79;100.00;97863.48;1793315;79;21376;-70
2021/01/26 01:51:29;;;;;;;25.30;18.27;;;;;;;3.76;100.00;97902.29;1815566;79;21028;-70
2021/01/26 01:54:02;;;;;;;20.68;16.20;;;;;;;3.75;100.00;97865.89;1815413;78;21020;-68
2021/01/26 01:57:06;;;;;;;27.05;17.05;;;;;;;3.73;100.00;97861.76;1815427;79;21102;-68
2021/01/26 01:59:44;;;;;;;23.12;14.80;;;;;;;3.71;100.00;97857.17;1815774;79;20946;-68
2021/01/26 02:02:12;;;;;;;28.95;19.42;;;;;;;3.67;100.00;97855.24;1815693;79;22075;-64
2021/01/26 02:04:41;;;;;;;20.65;15.32;;;;;;;3.65;100.00;97839.08;1815546;79;21012;-65
2021/01/26 02:07:10;;;;;;;26.02;17.95;;;;;;;3.64;100.00;97843.86;1815576;79;21444;-64
2021/01/26 02:09:40;;;;;;;21.30;15.50;;;;;;;3.61;100.00;97851.30;1793167;79;21032;-65
2021/01/26 02:12:10;;;;;;;28.57;18.70;;;;;;;3.61;100.00;97845.33;1815580;78;20992;-62
2021/01/26 02:14:46;;;;;;;24.72;16.57;;;;;;;3.60;100.00;97836.78;1815614;78;21135;-64
2021/01/26 02:17:21;;;;;;;;;;;;;;;3.59;100.00;97825.33;1818278;79;21460;-68
2021/01/26 02:20:32;;;;;;;25.00;17.60;;;;;;;3.57;100.00;97831.86;1815639;79;20236;-63
2021/01/26 02:23:40;;;;;;;28.27;17.73;;;;;;;3.55;100.00;97822.13;1815542;79;21609;-67
2021/01/26 02:26:51;;;;;;;26.07;18.65;;;;;;;3.55;100.00;97824.70;1815587;79;21634;-70
2021/01/26 02:29:24;;;;;;;28.50;19.10;;;;;;;3.54;100.00;97837.66;1815700;79;22093;-71
2021/01/26 02:32:34;;;;;;;26.57;17.02;;;;;;;3.53;100.00;97806.42;1814917;78;21001;-71
2021/01/26 02:35:38;;;;;;;27.00;17.82;;;;;;;3.53;100.00;97803.84;1790405;78;21492;-69
2021/01/26 02:38:15;;;;;;;20.05;14.75;;;;;;;3.52;100.00;97809.45;1742958;82;21495;-71
2021/01/26 02:41:12;;;;;;;18.55;13.32;;;;;;;3.52;100.00;97816.34;1742910;82;21036;-71
2021/01/26 02:43:49;;;;;;;21.52;15.70;;;;;;;3.51;100.00;97808.27;1730108;83;22243;-70
2021/01/26 02:46:47;;;;;;;24.65;18.07;;;;;;;3.51;100.00;97801.83;1742899;81;21563;-70
2021/01/26 02:49:37;;;;;;;20.25;14.38;;;;;;;3.50;100.00;97799.72;1730050;82;21020;-71
2021/01/26 02:52:17;;;;;;;29.23;19.80;;;;;;;3.51;100.00;97801.83;1743071;82;21582;-70
2021/01/26 02:54:55;;;;;;;25.05;18.52;;;;;;;3.49;100.00;97795.49;1727031;81;21527;-62
2021/01/26 02:57:34;;;;;;;25.05;18.52;;;;;;;3.51;100.00;97803.11;1783113;80;22342;-66
2021/01/26 03:00:23;;;;;;;25.05;15.68;;;;;;;3.52;100.00;97791.91;1743055;82;21511;-64
2021/01/26 03:03:24;;;;;;;22.00;16.05;;;;;;;3.57;100.00;97796.30;1811180;77;22344;-65
2021/01/26 03:05:59;;;;;;;;;;;;;;;3.54;100.00;97802.92;1805512;78;21476;-63
2021/01/26 03:08:44;;;;;;;23.85;17.57;;;;;;;3.56;100.00;97800.62;1802535;79;21950;-65
2021/01/26 03:11:22;;;;;;;26.55;21.50;;;;;;;3.58;100.00;97786.38;1802574;79;20971;-71
2021/01/26 03:14:01;;;;;;;19.75;14.93;;;;;;;3.58;100.00;97782.05;1801916;79;21043;-69
2021/01/26 03:16:31;;;;;;;25.95;18.30;;;;;;;3.61;100.00;97778.42;1802432;79;21375;-69
2021/01/26 03:19:22;;;;;;;31.50;26.02;;;;;;;3.62;100.00;97781.36;1802474;79;21054;-68
2021/01/26 03:21:52;;;;;;;22.58;17.50;;;;;;;3.63;100.00;97768.86;1802539;79;22164;-70
2021/01/26 03:24:23;;;;;;;26.02;19.10;;;;;;;3.63;100.00;97777.41;1802543;79;21589;-62
2021/01/26 03:26:51;;;;;;;19.30;14.83;;;;;;;3.66;100.00;97769.49;1802539;79;21566;-65
2021/01/26 03:29:23;;;;;;;17.80;14.38;;;;;;;3.68;100.00;97759.10;1802430;79;21589;-62
2021/01/26 03:31:52;;;;;;;18.57;14.68;;;;;;;3.69;100.00;97766.73;1802478;79;20991;-67
2021/01/26 03:34:21;;;;;;;17.17;13.50;;;;;;;3.71;100.00;97759.37;1802418;79;21202;-64
2021/01/26 03:36:50;;;;;;;19.42;14.87;;;;;;;3.72;100.00;97760.55;1802358;79;21469;-66
2021/01/26 03:39:20;;;;;;;16.95;13.72;;;;;;;3.73;100.00;97754.48;1802428;79;21612;-63
2021/01/26 03:41:48;;;;;;;18.02;14.10;;;;;;;3.74;100.00;97757.42;1802466;79;21470;-64
2021/01/26 03:44:16;;;;;;;19.48;15.03;;;;;;;3.74;100.00;97747.59;1802453;79;21479;-65
2021/01/26 03:47:11;;;;;;;24.20;15.68;;;;;;;3.75;100.00;97756.96;1802538;79;22325;-69
2021/01/26 03:49:51;;;;;;;13.05;11.40;;;;;;;3.75;100.00;97750.06;1802371;79;22380;-70
2021/01/26 03:52:34;;;;;;;19.42;15.35;;;;;;;3.76;100.00;97747.03;1802373;79;21747;-68
2021/01/26 03:55:13;;;;;;;16.07;13.15;;;;;;;3.77;100.00;97738.38;1802325;79;21568;-70
2021/01/26 03:58:22;;;;;;;18.48;15.25;;;;;;;3.77;100.00;97743.06;1801844;79;21585;-71
2021/01/26 04:01:01;;;;;;;15.93;13.32;;;;;;;3.77;100.00;97732.77;1802460;79;22192;-69
2021/01/26 04:04:22;;;;;;;21.57;17.52;;;;;;;3.78;100.00;97725.88;1802404;79;21624;-67
2021/01/26 04:06:57;;;;;;;16.42;14.50;;;;;;;3.80;100.00;97736.90;1773120;79;21609;-68
2021/01/26 04:09:34;;;;;;;11.83;9.48;;;;;;;3.83;100.00;97730.27;1802802;78;21482;-69
2021/01/26 04:12:13;;;;;;;11.38;10.08;;;;;;;3.85;100.00;97727.13;1802714;79;21593;-66
2021/01/26 04:15:03;;;;;;;9.60;8.60;;;;;;;3.86;100.00;97741.65;1802207;79;22182;-66
2021/01/26 04:17:34;;;;;;;11.33;10.10;;;;;;;3.88;100.00;97730.33;1801919;79;21493;-68
2021/01/26 04:20:29;;;;;;;11.12;9.20;;;;;;;3.88;100.00;97722.61;1801854;79;20995;-69
2021/01/26 04:22:59;;;;;;;15.15;13.65;;;;;;;3.90;100.00;97727.19;1791335;80;20938;-66
2021/01/26 04:25:39;;;;;;;11.50;10.48;;;;;;;3.93;100.00;97736.47;1791503;79;20938;-66
2021/01/26 04:28:10;;;;;;;8.33;7.53;;;;;;;3.97;100.00;97742.60;1791540;80;22088;-66
2021/01/26 04:30:39;;;;;;;5.35;4.85;;;;;;;4.03;100.00;97755.05;1791463;80;21396;-66
2021/01/26 04:33:15;;;;;;;3.60;3.08;;;;;;;4.08;100.00;97788.22;1791451;80;21444;-68
2021/01/26 04:35:43;;;;;;;3.10;2.90;;;;;;;4.00;100.00;97800.30;1791638;80;21569;-67
2021/01/26 04:38:12;;;;;;;8.10;3.52;;;;;;;3.85;100.00;97800.03;1791475;80;21397;-69
2021/01/26 04:40:40;;;;;;;5.03;3.75;;;;;;;3.70;100.00;97804.87;1791429;78;22208;-69
2021/01/26 04:43:39;;;;;;;11.30;5.45;;;;;;;3.56;100.00;97813.48;1791444;80;21555;-65
2021/01/26 04:46:31;;;;;;;12.78;8.28;;;;;;;3.44;100.00;97819.85;1791462;80;21384;-64
2021/01/26 04:49:13;;;;;;;4.92;4.47;;;;;;;3.26;100.00;97831.64;1791180;78;21971;-66
2021/01/26 04:52:27;;;;;;;6.67;5.95;;;;;;;3.15;100.00;97836.64;1791474;80;21571;-63
2021/01/26 04:55:06;;;;;;;5.55;5.12;;;;;;;3.09;100.00;97848.58;1791488;80;22252;-68
2021/01/26 04:58:16;;;;;;;5.87;5.37;;;;;;;2.99;100.00;97855.19;1791356;80;21500;-63
2021/01/26 05:01:14;;;;;;;5.55;5.15;;;;;;;2.94;100.00;97862.34;1791459;80;21369;-65
2021/01/26 05:04:01;;;;;;;5.62;5.12;;;;;;;2.87;99.86;97859.77;1791369;80;21456;-66
2021/01/26 05:06:38;;;;;;;4.60;4.30;;;;;;;2.81;99.27;97852.42;1763331;80;21622;-66
2021/01/26 05:09:09;;;;;;;5.33;4.92;;;;;;;2.78;98.73;97870.16;1788469;80;21372;-67
2021/01/26 05:11:38;;;;;;;4.72;4.42;;;;;;;2.74;98.09;97876.86;1791362;80;20970;-63
2021/01/26 05:14:12;;;;;;;5.50;5.10;;;;;;;2.69;97.76;97875.84;1791393;80;21559;-64
2021/01/26 05:16:54;;;;;;;5.87;5.37;;;;;;;2.65;97.68;97880.33;1766734;80;21637;-62
2021/01/26 05:19:37;;;;;;;5.37;4.97;;;;;;;2.64;97.16;97881.70;1791521;78;21507;-63
2021/01/26 05:22:19;;;;;;;5.95;5.25;;;;;;;2.60;96.85;97886.19;1774992;80;22240;-63
2021/01/26 05:24:59;;;;;;;6.35;5.85;;;;;;;2.57;96.52;97894.53;1728590;83;21362;-65
2021/01/26 05:27:29;;;;;;;6.15;5.58;;;;;;;2.55;96.69;97897.19;1758738;80;21389;-63
2021/01/26 05:29:58;;;;;;;5.78;5.28;;;;;;;2.53;96.46;97917.45;1758740;80;20965;-63
2021/01/26 05:32:27;;;;;;;5.80;5.40;;;;;;;2.50;96.13;97921.48;1728711;83;21484;-64
2021/01/26 05:34:56;;;;;;;6.10;5.60;;;;;;;2.48;96.22;97929.73;1758870;81;22089;-66
2021/01/26 05:37:25;;;;;;;5.80;5.33;;;;;;;2.44;95.76;97938.06;1739669;82;21514;-63
2021/01/26 05:40:15;;;;;;;5.70;5.30;;;;;;;2.39;95.63;97941.84;1758696;80;21444;-63
2021/01/26 05:42:44;;;;;;;6.00;5.50;;;;;;;2.32;95.56;97937.03;1758642;81;21408;-63
2021/01/26 05:45:23;;;;;;;5.85;5.33;;;;;;;2.26;95.65;97945.08;1758575;81;21420;-65
2021/01/26 05:48:05;;;;;;;5.78;5.28;;;;;;;2.21;95.39;97959.09;1758786;81;21357;-69
2021/01/26 05:50:36;;;;;;;6.72;6.20;;;;;;;2.14;95.24;97956.48;1758683;81;20966;-67
2021/01/26 05:53:25;;;;;;;6.40;5.80;;;;;;;2.06;95.28;97963.77;1753694;80;21081;-64
2021/01/26 05:56:11;;;;;;;6.15;5.65;;;;;;;1.98;95.26;97970.17;1727873;82;21697;-70
2021/01/26 05:58:49;;;;;;;6.90;6.20;;;;;;;1.91;95.47;97977.83;1738028;80;22554;-66
2021/01/26 06:01:30;;;;;;;10.85;6.78;;;;;;;1.88;95.93;97988.26;1738695;80;21761;-67
2021/01/26 06:04:14;;;;;;;8.90;8.10;;;;;;;1.85;95.83;97986.31;1750805;80;21005;-67
2021/01/26 06:06:58;;;;;;;8.30;7.28;;;;;;;1.79;95.69;97997.72;1745635;80;21043;-69
2021/01/26 06:09:37;;;;;;;7.92;7.12;;;;;;;1.74;95.98;98002.72;1750533;80;21148;-67
2021/01/26 06:12:24;;;;;;;7.83;6.75;;;;;;;1.70;96.17;98007.64;1748420;80;21100;-71
2021/01/26 06:15:01;;;;;;;7.87;6.87;;;;;;;1.66;96.03;98016.77;1747568;80;22314;-69
2021/01/26 06:17:34;;;;;;;10.38;7.25;;;;;;;1.61;96.01;98025.61;1723268;81;21689;-68
2021/01/26 06:20:30;;;;;;;8.50;7.47;;;;;;;1.56;96.10;98033.58;1721191;82;21659;-70
2021/01/26 06:23:21;;;;;;;10.18;8.63;;;;;;;1.50;96.24;98039.47;1783017;78;20997;-69
2021/01/26 06:26:05;;;;;;;10.45;7.80;;;;;;;1.45;96.40;98045.28;1788040;78;21084;-68
2021/01/26 06:29:16;;;;;;;11.40;10.05;;;;;;;1.43;96.68;98038.12;1725763;82;22257;-66
2021/01/26 06:32:39;;;;;;;10.78;9.60;;;;;;;1.42;96.84;98053.13;1784300;80;21539;-69
2021/01/26 06:35:34;;;;;;;13.13;11.12;;;;;;;1.37;96.76;98050.80;1778457;80;21583;-68
2021/01/26 06:38:31;;;;;;;15.00;13.15;;;;;;;1.32;96.65;98052.77;1776686;80;21082;-67
2021/01/26 06:41:31;;;;;;;14.35;12.85;;;;;;;1.29;96.96;98066.56;1767801;80;21646;-64
2021/01/26 06:44:28;;;;;;;18.57;15.80;;;;;;;1.27;97.13;98061.13;1788948;80;22172;-66
2021/01/26 06:47:14;;;;;;;20.10;16.48;;;;;;;1.26;97.34;98075.69;1788777;80;21658;-65
2021/01/26 06:50:01;;;;;;;22.70;17.98;;;;;;;1.27;97.34;98069.66;1789014;80;21014;-64
2021/01/26 06:52:40;;;;;;;21.70;17.55;;;;;;;1.28;97.49;98079.45;1784165;80;21705;-69
2021/01/26 06:55:22;;;;;;;20.52;16.50;;;;;;;1.28;97.00;98078.17;1771025;80;21627;-69
2021/01/26 06:58:29;;;;;;;25.37;19.98;;;;;;;1.28;97.25;98087.15;1788780;80;21641;-65
2021/01/26 07:01:40;;;;;;;23.30;18.62;;;;;;;1.30;97.23;98095.14;1787557;80;21626;-68
2021/01/26 07:04:43;;;;;;;24.72;19.70;;;;;;;1.32;97.00;98099.74;1776368;80;21594;-67
2021/01/26 07:07:44;;;;;;;27.13;20.45;;;;;;;1.31;96.72;98100.65;1786255;80;21060;-64
2021/01/26 07:10:45;;;;;;;22.85;17.55;;;;;;;1.30;96.41;98102.83;1790667;78;21694;-66
2021/01/26 07:13:32;;;;;;;28.65;21.93;;;;;;;1.31;96.06;98107.51;1755103;81;21416;-66
2021/01/26 07:16:44;;;;;;;25.37;19.60;;;;;;;1.33;96.09;98119.35;1757584;79;21614;-66
2021/01/26 07:19:42;;;;;;;21.35;17.45;;;;;;;1.37;96.04;98131.57;1757663;79;21578;-66
2021/01/26 07:22:48;;;;;;;22.90;17.62;;;;;;;1.42;95.56;98124.48;1774616;79;22179;-67
2021/01/26 07:25:37;;;;;;;25.48;19.07;;;;;;;1.44;94.74;98136.77;1790436;78;21147;-66
2021/01/26 07:28:17;;;;;;;23.25;17.95;;;;;;;1.46;94.78;98134.97;1714068;81;22225;-64
2021/01/26 07:31:05;;;;;;;21.97;17.42;;;;;;;1.48;94.36;98141.30;1782251;78;21753;-63
2021/01/26 07:33:47;;;;;;;25.10;19.45;;;;;;;1.54;94.30;98155.11;1779702;78;21108;-67
2021/01/26 07:36:31;;;;;;;21.90;16.45;;;;;;;1.60;94.01;98162.02;1781894;78;21654;-66
2021/01/26 07:39:28;;;;;;;23.40;19.20;;;;;;;1.65;93.60;98166.92;1785674;80;21385;-62
2021/01/26 07:42:07;;;;;;;25.63;20.03;;;;;;;1.70;93.39;98172.66;1774097;80;22078;-66
2021/01/26 07:44:59;;;;;;;23.07;18.73;;;;;;;1.78;93.07;98178.70;1773460;80;21345;-67
2021/01/26 07:47:38;;;;;;;24.63;19.23;;;;;;;1.81;92.62;98183.22;1694237;80;21121;-64
2021/01/26 07:50:38;;;;;;;18.12;14.68;;;;;;;1.84;92.42;98185.64;1794062;79;21431;-64
2021/01/26 07:53:24;;;;;;;19.02;14.38;;;;;;;1.87;91.50;98189.78;1777824;80;21670;-67
2021/01/26 07:56:10;;;;;;;26.10;19.82;;;;;;;1.86;91.50;98195.83;1778360;80;22346;-66
2021/01/26 07:58:38;;;;;;;19.62;15.23;;;;;;;1.88;91.47;98199.98;1780209;79;21103;-63
2021/01/26 08:01:07;;;;;;;19.62;15.68;;;;;;;1.89;90.93;98199.07;1769251;79;21154;-64
2021/01/26 08:03:36;;;;;;;19.20;14.68;;;;;;;1.89;90.60;98204.66;1773107;79;21084;-71
2021/01/26 08:06:06;;;;;;;21.45;16.23;;;;;;;1.89;91.06;98210.62;1761088;80;20981;-69
2021/01/26 08:08:39;;;;;;;18.65;15.65;;;;;;;1.93;90.69;98216.43;1751703;80;21379;-71
2021/01/26 08:11:12;;;;;;;18.10;15.65;;;;;;;1.96;90.55;98216.28;1790407;80;21021;-70
2021/01/26 08:13:48;;;;;;;16.73;13.20;;;;;;;2.01;90.10;98227.12;1782169;79;20997;-71
2021/01/26 08:16:34;;;;;;;15.83;13.03;;;;;;;2.01;89.77;98230.52;1780426;78;21084;-72
2021/01/26 08:19:19;;;;;;;16.75;13.50;;;;;;;2.00;89.64;98226.74;1776099;80;21017;-71
2021/01/26 08:21:47;;;;;;;13.88;11.45;;;;;;;2.00;89.49;98226.28;1775669;80;21223;-70
2021/01/26 08:24:26;;;;;;;12.53;11.03;;;;;;;2.01;89.09;98228.41;1774069;79;21830;-66
2021/01/26 08:26:56;;;;;;;14.65;11.75;;;;;;;2.02;88.44;98235.20;1776042;78;21660;-67
2021/01/26 08:29:48;;;;;;;14.23;11.30;;;;;;;2.02;88.28;98240.33;1769478;80;21677;-65
2021/01/26 08:32:31;;;;;;;11.05;9.75;;;;;;;2.04;88.33;98249.23;1764127;78;21071;-65
2021/01/26 08:35:13;;;;;;;13.18;11.43;;;;;;;2.09;88.23;98237.00;1771582;78;21192;-67
2021/01/26 08:37:50;;;;;;;13.93;11.63;;;;;;;2.12;88.36;98244.55;1790305;78;21024;-69
2021/01/26 08:40:29;;;;;;;11.57;10.38;;;;;;;2.18;88.27;98245.08;1766415;80;21040;-66
2021/01/26 08:43:02;;;;;;;15.75;12.50;;;;;;;2.21;88.07;98246.20;1768599;78;21130;-69
2021/01/26 08:45:38;;;;;;;12.47;10.00;;;;;;;2.24;87.68;98241.37;1782146;80;21079;-70
2021/01/26 08:48:08;;;;;;;10.70;9.60;;;;;;;2.27;87.12;98245.07;1760335;80;21670;-69
2021/01/26 08:50:54;;;;;;;10.32;9.15;;;;;;;2.29;86.43;98253.53;1757249;80;21084;-70
2021/01/26 08:53:31;;;;;;;11.85;10.20;;;;;;;2.30;86.09;98260.33;1759595;80;21633;-70
2021/01/26 08:56:14;;;;;;;10.50;9.03;;;;;;;2.29;85.77;98246.66;1757145;80;21689;-69
2021/01/26 08:58:55;;;;;;;13.78;10.50;;;;;;;2.30;85.23;98245.75;1764924;80;21008;-73
2021/01/26 09:01:40;;;;;;;18.60;14.15;;;;;;;2.31;85.39;98253.00;1761358;80;22462;-71
2021/01/26 09:04:18;;;;;;;12.33;10.05;;;;;;;2.34;85.41;98258.81;1772780;78;21043;-72
2021/01/26 09:06:48;;;;;;;12.23;10.25;;;;;;;2.37;85.34;98252.69;1776446;78;21677;-69
2021/01/26 09:09:31;;;;;;;8.78;7.65;;;;;;;2.38;84.78;98259.48;1761307;80;21135;-67
2021/01/26 09:12:02;;;;;;;8.80;7.83;;;;;;;2.38;84.39;98263.34;1757506;80;21605;-71
2021/01/26 09:14:50;;;;;;;8.80;7.22;;;;;;;2.38;84.24;98271.05;1757911;80;21206;-63
2021/01/26 09:17:29;;;;;;;9.10;8.15;;;;;;;2.37;84.12;98265.53;1759674;80;21094;-74
2021/01/26 09:20:22;;;;;;;8.58;6.75;;;;;;;2.35;84.17;98269.91;1773214;80;21068;-65
2021/01/26 09:22:50;;;;;;;7.53;6.62;;;;;;;2.37;84.01;98264.70;1757735;80;21027;-70
2021/01/26 09:25:26;;;;;;;9.25;8.25;;;;;;;2.43;83.45;98268.21;1773001;78;21601;-68
2021/01/26 09:28:00;;;;;;;;;;;;;;;2.46;83.23;98279.61;1760483;79;21204;-69
2021/01/26 09:30:29;;;;;;;7.62;6.55;;;;;;;2.49;82.64;98275.61;1768099;79;20237;-69
2021/01/26 09:33:09;;;;;;;8.73;7.45;;;;;;;2.50;82.86;98276.81;1764799;78;21095;-69
2021/01/26 09:35:50;;;;;;;7.55;6.45;;;;;;;2.52;83.15;98291.70;1763291;80;21609;-70
2021/01/26 09:38:23;;;;;;;7.62;6.58;;;;;;;2.52;82.51;98289.13;1757285;80;21091;-74
2021/01/26 09:41:05;;;;;;;7.50;6.60;;;;;;;2.52;81.95;98292.15;1768584;80;21620;-68
2021/01/26 09:43:39;;;;;;;7.85;6.10;;;;;;;2.51;81.84;98305.45;1769700;80;21032;-68
2021/01/26 09:46:31;;;;;;;7.37;5.30;;;;;;;2.53;81.88;98304.09;1775323;80;21008;-71
2021/01/26 09:49:26;;;;;;;7.37;6.17;;;;;;;2.55;81.42;98312.55;1769708;80;21068;-69
2021/01/26 09:52:08;;;;;;;8.73;7.05;;;;;;;2.57;80.90;98299.17;1787169;80;21016;-74
2021/01/26 09:54:39;;;;;;;6.58;5.62;;;;;;;2.59;81.02;98311.48;1778633;80;21348;-72
2021/01/26 09:57:09;;;;;;;9.75;6.12;;;;;;;2.60;79.21;98310.58;1783681;80;21056;-72
2021/01/26 09:59:40;;;;;;;6.40;5.80;;;;;;;2.59;79.53;98294.78;1735420;80;20956;-73
2021/01/26 10:02:12;;;;;;;5.20;4.70;;;;;;;2.60;79.30;98319.12;1764297;80;21052;-70
2021/01/26 10:04:41;;;;;;;7.62;4.92;;;;;;;2.62;78.81;98321.16;1761838;78;21108;-70
2021/01/26 10:07:14;;;;;;;7.17;5.80;;;;;;;2.63;78.92;98320.25;1760557;80;21243;-71
2021/01/26 10:09:45;;;;;;;5.62;5.00;;;;;;;2.66;79.16;98332.11;1776474;80;20948;-66
2021/01/26 10:12:35;;;;;;;5.75;5.08;;;;;;;2.73;79.70;98335.20;1772072;80;21238;-68
2021/01/26 10:15:27;;;;;;;6.97;5.50;;;;;;;2.80;79.22;98328.34;1736184;81;22046;-70
2021/01/26 10:18:12;;;;;;;5.08;4.58;;;;;;;2.85;78.89;98348.67;1736389;81;21043;-69
2021/01/26 15:28:32;;;;;;;5.92;5.42;;;;;;;2.55;76.29;98704.38;1849167;77;22605;-65
2021/01/26 15:31:01;;;;;;;6.50;5.78;;;;;;;2.51;75.93;98715.23;1817325;79;21506;-68
2021/01/26 15:33:30;;;;;;;6.30;5.70;;;;;;;2.51;75.79;98710.09;1816188;79;21943;-67
2021/01/26 15:35:58;;;;;;;5.80;5.30;;;;;;;2.51;75.73;98724.23;1815600;79;21547;-67
2021/01/26 15:38:27;;;;;;;6.17;5.62;;;;;;;2.53;75.61;98733.16;1816046;79;21561;-66
2021/01/26 15:40:55;;;;;;;6.58;5.97;;;;;;;2.54;75.23;98740.80;1815531;79;21629;-65
2021/01/26 15:43:26;;;;;;;7.72;5.42;;;;;;;2.55;75.62;98737.77;1816150;79;21024;-64
2021/01/26 15:45:55;;;;;;;5.90;5.22;;;;;;;2.55;75.43;98739.89;1815576;79;21349;-63
2021/01/26 15:48:24;;;;;;;6.53;4.92;;;;;;;2.54;75.17;98743.81;1816053;79;21463;-64
2021/01/26 15:50:53;;;;;;;7.42;5.67;;;;;;;2.53;75.29;98750.69;1815581;79;21491;-63
2021/01/26 15:53:24;;;;;;;7.35;5.80;;;;;;;2.55;75.53;98750.63;1816077;79;20886;-65
2021/01/26 15:55:52;;;;;;;5.55;5.10;;;;;;;2.55;75.37;98760.90;1815638;79;21435;-64
2021/01/26 15:58:21;;;;;;;5.75;5.25;;;;;;;2.53;75.33;98754.55;1816094;79;21936;-66
2021/01/26 16:00:50;;;;;;;10.50;6.33;;;;;;;2.52;75.80;98749.02;1815460;79;20902;-69
2021/01/26 16:03:19;;;;;;;7.67;6.10;;;;;;;2.53;76.17;98755.83;1816200;79;21455;-70
2021/01/26 16:05:48;;;;;;;8.70;7.30;;;;;;;2.56;75.44;98750.55;1815496;79;21009;-64
2021/01/26 16:08:16;;;;;;;9.53;7.20;;;;;;;2.56;75.45;98754.41;1816125;79;21542;-64
2021/01/26 16:10:46;;;;;;;7.95;6.15;;;;;;;2.55;75.39;98761.73;1815571;79;20969;-64
2021/01/26 16:13:15;;;;;;;7.83;6.42;;;;;;;2.53;75.29;98766.11;1816000;79;21029;-64
2021/01/26 16:15:43;;;;;;;6.72;5.35;;;;;;;2.53;75.31;98771.69;1815469;79;21301;-65
2021/01/26 16:18:11;;;;;;;6.17;5.58;;;;;;;2.52;75.43;98770.86;1816020;79;21519;-64
2021/01/26 16:20:40;;;;;;;7.25;5.90;;;;;;;2.52;75.39;98776.45;1815535;79;21498;-69
2021/01/26 16:23:08;;;;;;;7.20;6.50;;;;;;;2.50;75.52;98776.52;1816004;79;22089;-68
2021/01/26 16:25:37;;;;;;;7.08;6.37;;;;;;;2.50;75.60;98784.22;1815421;79;21574;-68
2021/01/26 16:28:05;;;;;;;7.58;6.12;;;;;;;2.52;75.67;98785.44;1801591;79;21428;-68
2021/01/26 16:30:33;;;;;;;8.05;5.90;;;;;;;2.50;75.55;98798.35;1788930;80;20937;-65
2021/01/26 16:33:02;;;;;;;7.20;5.92;;;;;;;2.50;75.63;98793.21;1802731;79;21495;-64
2021/01/26 16:35:32;;;;;;;6.53;5.20;;;;;;;2.51;75.58;98807.73;1802735;79;22294;-69
2021/01/26 16:38:00;;;;;;;6.22;5.62;;;;;;;2.53;75.49;98814.09;1802536;79;21551;-70
2021/01/26 16:40:28;;;;;;;6.85;6.12;;;;;;;2.52;75.06;98811.97;1802084;79;21518;-69
2021/01/26 16:42:57;;;;;;;7.25;6.50;;;;;;;2.51;74.81;98805.61;1802015;79;21783;-70
2021/01/26 16:45:26;;;;;;;8.88;6.28;;;;;;;2.49;74.89;98817.23;1802220;79;21554;-70
2021/01/26 16:47:55;;;;;;;6.08;5.42;;;;;;;2.47;75.11;98815.18;1802036;79;21197;-71
2021/01/26 16:50:30;;;;;;;7.40;6.00;;;;;;;2.47;75.09;98823.34;1802055;79;20915;-69
2021/01/26 16:52:59;;;;;;;6.70;5.87;;;;;;;2.46;75.54;98820.39;1802342;79;21547;-71
2021/01/26 16:55:27;;;;;;;6.72;5.78;;;;;;;2.47;75.54;98817.75;1802078;79;21559;-71
2021/01/26 16:57:56;;;;;;;9.33;6.45;;;;;;;2.48;75.21;98828.41;1802101;79;21570;-70
2021/01/26 17:00:30;;;;;;;7.65;6.33;;;;;;;2.48;74.75;98827.13;1802076;79;21328;-63
2021/01/26 17:03:01;;;;;;;8.28;5.90;;;;;;;2.47;74.75;98833.16;1800787;79;21587;-62
2021/01/26 17:05:33;;;;;;;8.85;6.10;;;;;;;2.47;74.44;98829.77;1802197;79;21546;-61
2021/01/26 17:07:59;;;;;;;7.62;6.83;;;;;;;2.46;74.61;98847.36;1802162;79;20998;-64
2021/01/26 17:10:28;;;;;;;7.92;7.03;;;;;;;2.47;74.70;98845.17;1802155;79;21005;-62
2021/01/26 17:12:57;;;;;;;8.25;7.17;;;;;;;2.47;74.54;98842.16;1802049;79;22137;-63
2021/01/26 17:15:25;;;;;;;9.85;6.20;;;;;;;2.51;74.62;98846.72;1802061;79;21601;-65
2021/01/26 17:17:54;;;;;;;8.10;6.55;;;;;;;2.50;74.58;98860.02;1802085;79;21479;-64
2021/01/26 17:20:24;;;;;;;7.90;6.85;;;;;;;2.50;74.34;98866.44;1802170;79;21364;-63
2021/01/26 17:22:52;;;;;;;9.03;7.58;;;;;;;2.48;74.71;98857.96;1802086;79;20938;-63
2021/01/26 17:25:21;;;;;;;9.68;8.13;;;;;;;2.47;74.51;98865.28;1802092;79;22834;-63
2021/01/26 17:27:49;;;;;;;9.75;7.85;;;;;;;2.47;74.81;98866.56;1801986;79;21523;-63
2021/01/26 17:30:18;;;;;;;8.65;6.62;;;;;;;2.47;75.06;98871.70;1802081;79;21587;-65